Portada
METAR-TAF:

METAR-TAF

Aeroports :

Reims, França

latitud: 49-12-31N, longitud: 004-09-24E, altitud: 95 m

Observació

L'informe es va fer fa 31 minuts, a les 13:00 UTC
Vent 17 kt del Nord-Oest
Temperatura 8°C
Humitat 81%
Pressió 1007 hPa
Visibilitat 10 km o més
Cel ennuvolat a una alçada de 2400 ft
Cel cobert a una alçada de 3400 ft

METAR: LFQA 091300Z AUTO 31017KT 9999 BKN024 OVC034 08/05 Q1007

Hora: 14:31 (13:31 UTC)


TAF: manca

Observacions i pronòstics meteorològics de més de 4000 aeroports (METAR i TAF).

Les estacions disponibles són els punts grocs i vermells al mapa.

Posi el ratolí al punt desitjat per veure el nom de l'estació.

Feu clic per veure les observacions i els pronòstics meteorològics.

Per canviar el mapa: feu clic els botons verds amb una creu de color negre per apropar; al botó verd amb un guió per allunyar la imatge; o en les fletxes verdes per a mapes adjacents.


METAR-TAF: